Meteo Giornale » Osservazioni meteo Stati Uniti (USA) » Atlanta Hartsfield
ore: 12:52 - Osservazioni Meteo Atlanta Hartsfield
Lat. 33° 37' N Lon. 84° 26' W Alt. 312 metri s.l.m.
32 °C
Nuvoloso
Temp. 24 Ore
25 °C
34 °C
Nord
11.1 Km/h
Dew point 19 °C
Umidità 46 %
Visibilità 10 Km
Il sole sorge alle ore 07:11
Il sole tramonta alle ore 20:03
| Data e Ora | Cielo e Fenomeni | T °C | DP °C | Um. % | Pres. hPa | Vis. km | Vento km/h | |
|---|---|---|---|---|---|---|---|---|
| Oggi h: 12:52 | Nuvoloso | 32 | 19 | 46 | 1020 | 10 | N 11.1 | |
| Oggi h: 11:52 | Poco Nuvoloso | 32 | 20 | 49 | 1021 | 10 | N 9.3 | |
| Oggi h: 10:52 | Poco Nuvoloso | 30 | 22 | 62 | 1021 | 10 | O/NO 9.3 | |
| Oggi h: 09:52 | Sereno | 29 | 22 | 66 | 1021 | 10 | NO 11.1 | |
| Oggi h: 08:52 | Sereno | 27 | 21 | 69 | 1021 | 10 | NO 9.3 | |
| Oggi h: 07:52 | Sereno | 26 | 21 | 73 | 1020 | 10 | N 0 | |
| Oggi h: 06:52 | Sereno | 25 | 20 | 73 | 1020 | 10 | N 0 | |
| Oggi h: 05:52 | Sereno | 25 | 20 | 73 | 1019 | 10 | N 0 | |
| Oggi h: 04:52 | Sereno | 25 | 20 | 73 | 1019 | 10 | SE 7.4 | |
| Oggi h: 03:52 | Poco Nuvoloso | 26 | 19 | 65 | 1019 | 10 | E 7.4 | |
| Oggi h: 02:52 | Poco Nuvoloso | 26 | 19 | 65 | 1019 | 10 | E 7.4 | |
| Oggi h: 01:52 | Nuvoloso | 27 | 19 | 61 | 1020 | 10 | N 0 | |
| Oggi h: 00:52 | Molto Nuvoloso | 28 | 19 | 58 | 1020 | 10 | N 0 | |
| Ieri h: 23:52 | Molto Nuvoloso | 28 | 19 | 58 | 1020 | 10 | N 5.5 | |
| Ieri h: 22:52 | Molto Nuvoloso | 29 | 19 | 54 | 1020 | 10 | E 9.3 | |
| Ieri h: 21:52 | Nuvoloso | 29 | 18 | 51 | 1019 | 10 | E 11.1 | |
| Ieri h: 20:52 | Poco Nuvoloso | 31 | 18 | 45 | 1019 | 10 | E 9.3 | |
| Ieri h: 19:52 | Poco Nuvoloso | 32 | 18 | 43 | 1018 | 10 | NE 14.8 | |
| Ieri h: 18:52 | Poco Nuvoloso | 33 | 18 | 41 | 1018 | 10 | E/SE 7.4 | |
| Ieri h: 17:52 | Nuvoloso | 33 | 18 | 41 | 1019 | 10 | E/NE 9.3 | |
| Ieri h: 16:52 | Nuvoloso | 34 | 18 | 38 | 1019 | 10 | E 13 | |
| Ieri h: 15:52 | Nuvoloso | 33 | 19 | 43 | 1019 | 10 | E 11.1 | |
| Ieri h: 14:52 | Nuvoloso | 33 | 19 | 43 | 1020 | 10 | NE 9.3 | |
| Ieri h: 13:52 | Nuvoloso | 33 | 20 | 46 | 1021 | 10 | N/NE 9.3 | |



